Latest Weather Observations for Tasman Island

IDT60801

Issued at 12:31 pm EST Tuesday 22 September 2020 (issued every 10 minutes, with the page automatically refreshed every 10 minutes)

About weather observations | Map of weather stations | Latest weather observations for TAS | Other Formats
Station Details ID: 094155 Name: TASMAN ISLAND Lat: -43.24 Lon: 148.00 Height: 240.0 m
Data from the previous 72 hours. | See also: Recent months at Tasman Island
Date/Time
EST
Temp
°C
App
Temp
°C
Dew
Point
°C
Rel
Hum
%
Delta-T
°C
Wind Press
QNH
hPa
Press
MSL
hPa
Rain since
9am
mm
Dir  Spd
km/h
Gust
km/h
Spd
kts
Gust
kts
22/12:30pm 12.9 8.6 7.1 68 2.9 NNW 19 28 10 15 993.9 994.0 0.0
22/12:00pm 12.8 8.2 6.4 65 3.1 N 20 26 11 14 994.2 994.3 0.0
22/11:30am 13.4 9.1 7.0 65 3.1 N 19 24 10 13 994.3 994.4 0.0
22/11:00am 14.0 9.7 6.8 62 3.6 N 19 30 10 16 994.5 994.6 0.0
22/10:30am 13.4 8.9 7.0 65 3.1 NNW 20 32 11 17 994.8 994.9 0.0
22/10:00am 13.0 7.8 5.4 60 3.6 NNW 22 37 12 20 995.1 995.2 0.0
22/09:30am 13.2 9.1 6.3 63 3.3 NNW 17 28 9 15 995.1 995.2 0.0
22/09:00am 12.3 7.3 6.6 68 2.8 N 22 33 12 18 995.3 995.5 2.0
22/08:30am 10.8 5.5 6.6 75 2.0 N 24 37 13 20 995.3 995.5 2.0
22/08:00am 11.0 5.3 6.6 74 2.1 N 26 37 14 20 995.2 995.3 2.0
22/07:30am 11.0 5.2 6.4 73 2.2 N 26 37 14 20 995.2 995.3 2.0
22/07:00am 10.9 3.9 6.8 76 2.0 N 33 43 18 23 995.2 995.3 2.0
22/06:30am 10.3 3.9 6.8 79 1.7 N 30 39 16 21 995.3 995.5 2.0
22/06:00am 10.3 3.8 6.5 77 1.8 NNW 30 46 16 25 995.4 995.6 2.0
22/05:44am 10.3 4.2 6.6 78 1.8 N 28 50 15 27 995.4 995.6 2.0
22/05:30am 10.4 5.1 6.7 78 1.8 N 24 48 13 26 995.5 995.7 2.0
22/05:06am 10.3 3.0 7.0 80 1.6 N 35 54 19 29 995.6 995.8 2.0
22/05:00am 10.3 3.0 7.0 80 1.6 N 35 48 19 26 995.7 995.9 2.0
22/04:30am 10.4 2.2 6.7 78 1.8 N 39 65 21 35 995.5 995.7 2.0
22/04:05am 10.3 4.2 6.8 79 1.7 N 28 52 15 28 995.9 996.1 2.0
22/04:00am 10.2 4.5 6.7 79 1.7 N 26 52 14 28 995.9 996.1 2.0
22/03:30am 10.0 4.3 6.7 80 1.6 N 26 44 14 24 996.3 996.5 2.0
22/03:00am 9.9 3.8 6.8 81 1.5 N 28 48 15 26 996.6 996.8 2.0
22/02:30am 9.9 3.0 6.4 79 1.7 N 32 52 17 28 997.2 997.3 2.0
22/02:01am 9.8 2.3 6.5 80 1.6 N 35 56 19 30 997.6 997.7 2.0
22/02:00am 9.8 2.0 6.5 80 1.6 N 37 56 20 30 997.7 997.8 2.0
22/01:30am 9.9 3.5 6.8 81 1.5 N 30 44 16 24 998.4 998.5 2.0
22/01:00am 9.9 3.4 6.4 79 1.7 N 30 39 16 21 998.2 998.3 2.0
22/12:30am 10.1 4.1 5.5 73 2.1 N 26 33 14 18 998.1 998.2 2.0
22/12:00am 10.2 4.4 4.4 67 2.6 NNW 24 35 13 19 998.7 998.8 2.0
 
Date/Time
EST
Temp
°C
App
Temp
°C
Dew
Point
°C
Rel
Hum
%
Delta-T
°C
Wind Press
QNH
hPa
Press
MSL
hPa
Rain since
9am
mm
Dir  Spd
km/h
Gust
km/h
Spd
kts
Gust
kts
21/11:30pm 10.0 3.7 5.6 74 2.0 N 28 41 15 22 998.8 999.0 2.0
21/11:00pm 10.1 4.5 5.5 73 2.1 N 24 35 13 19 999.2 999.4 2.0
21/10:30pm 11.0 4.2 5.1 67 2.7 NW 30 52 16 28 999.2 999.4 2.0
21/10:24pm 11.0 4.6 5.1 67 2.7 NW 28 52 15 28 999.2 999.4 2.0
21/10:00pm 10.4 6.2 5.8 73 2.2 NNW 17 32 9 17 999.1 999.3 2.0
21/09:30pm 10.3 8.8 6.6 78 1.8 NE 4 9 2 5 999.1 999.3 2.0
21/09:00pm 10.4 8.3 5.6 72 2.2 NNW 6 9 3 5 999.2 999.4 2.0
21/08:30pm 11.0 9.6 5.7 70 2.5 W 2 4 1 2 999.3 999.5 2.0
21/08:00pm 10.8 8.8 6.4 74 2.1 NNW 6 17 3 9 999.5 999.7 2.0
21/07:30pm 11.7 8.0 6.4 70 2.5 WNW 15 20 8 11 999.4 999.6 1.2
21/07:00pm 11.4 8.2 6.7 73 2.3 WNW 13 22 7 12 999.0 999.2 1.2
21/06:30pm 12.1 9.9 6.4 68 2.7 S 7 28 4 15 998.2 998.3 1.2
21/06:00pm 13.8 10.9 6.4 61 3.6 NW 11 22 6 12 997.7 997.8 1.0
21/05:30pm 14.2 9.7 7.0 62 3.6 N 20 26 11 14 997.8 997.9 1.0
21/05:00pm 13.7 10.3 7.5 66 3.1 N 15 26 8 14 998.0 998.1 1.0
21/04:30pm 13.8 9.1 7.6 66 3.1 N 22 32 12 17 998.0 998.1 1.0
21/04:00pm 15.0 11.8 6.8 58 4.1 NNE 13 20 7 11 998.0 998.1 1.0
21/03:30pm 15.7 12.1 6.7 55 4.5 N 15 22 8 12 998.3 998.4 1.0
21/03:00pm 17.3 14.3 6.2 48 5.5 N 11 17 6 9 998.3 998.4 1.0
21/02:30pm 16.0 12.9 5.6 50 5.1 N 11 24 6 13 998.4 998.5 1.0
21/02:00pm 16.8 11.5 3.1 40 6.4 NW 20 33 11 18 998.7 998.8 1.0
21/01:30pm 16.5 11.9 3.6 42 6.0 WNW 17 32 9 17 998.5 998.6 1.0
21/01:00pm 15.7 10.7 4.4 47 5.4 WNW 20 39 11 21 998.7 998.8 1.0
21/12:30pm 15.8 9.9 3.9 45 5.6 NW 24 48 13 26 999.0 999.2 1.0
21/12:27pm 15.9 10.8 4.0 45 5.6 NW 20 48 11 26 999.0 999.2 1.0
21/12:00pm 16.0 11.4 6.4 53 4.8 NW 20 44 11 24 999.4 999.6 1.0
21/11:31am 15.0 7.0 7.3 60 3.8 NW 39 57 21 31 999.0 999.2 1.0
21/11:30am 14.9 6.5 7.2 60 3.8 NW 41 57 22 31 999.0 999.2 1.0
21/11:00am 12.9 5.9 6.9 67 2.9 NNW 33 57 18 31 998.5 998.6 1.0
21/10:30am 13.5 5.9 7.5 67 3.0 NNW 37 63 20 34 998.2 998.3 1.0
21/10:00am 11.8 7.2 11.0 95 0.4 NW 26 48 14 26 999.4 999.6 0.8
21/09:30am 10.5 7.3 9.9 96 0.3 WNW 17 37 9 20 1000.1 1000.3 0.6
21/09:24am 10.5 7.5 9.4 93 0.6 WNW 15 35 8 19 1000.4 1000.6 0.4
21/09:06am 15.5 9.6 11.1 75 2.4 NW 33 52 18 28 1000.0 1000.2 0.0
21/09:00am 15.4 8.8 11.2 76 2.3 NNW 37 54 20 29 999.4 999.6 0.0
21/08:30am 13.5 6.9 11.4 87 1.1 N 37 48 20 26 999.1 999.3 0.0
21/08:00am 12.2 5.2 11.4 95 0.4 N 39 46 21 25 998.9 999.1 0.0
21/07:30am 12.9 5.0 11.5 91 0.8 N 44 52 24 28 999.0 999.2 0.0
21/07:00am 13.2 5.5 11.6 90 0.9 N 43 54 23 29 999.1 999.3 0.0
21/06:30am 12.5 6.7 11.4 93 0.6 N 33 44 18 24 999.0 999.2 0.0
21/06:00am 12.2 6.4 10.9 92 0.7 NNE 32 43 17 23 999.3 999.5 0.0
21/05:30am 13.1 8.2 11.2 88 1.0 N 28 41 15 22 999.4 999.6 0.0
21/05:00am 13.0 7.1 11.2 89 1.0 NNE 33 46 18 25 999.5 999.7 0.0
21/04:30am 12.9 7.0 11.3 90 0.9 N 33 43 18 23 999.8 1000.0 0.0
21/04:00am 12.7 8.4 10.8 88 1.0 NNE 24 35 13 19 1000.3 1000.5 0.0
21/03:30am 13.6 8.6 10.8 83 1.5 N 28 41 15 22 1000.3 1000.5 0.0
21/03:00am 13.1 7.3 10.8 86 1.2 N 32 43 17 23 1000.3 1000.5 0.0
21/02:30am 13.8 6.8 11.1 84 1.4 N 39 52 21 28 1001.0 1001.2 0.0
21/02:00am 13.7 7.4 11.0 84 1.4 N 35 48 19 26 1001.1 1001.3 0.0
21/01:30am 13.5 7.7 11.4 87 1.1 N 33 46 18 25 1001.4 1001.5 0.0
21/01:00am 13.6 8.6 11.0 84 1.4 N 28 41 15 22 1001.5 1001.6 0.0
21/12:30am 14.2 8.4 10.8 80 1.8 N 32 43 17 23 1001.7 1001.8 0.0
21/12:16am 14.2 8.5 11.0 81 1.7 N 32 50 17 27 1001.8 1001.9 0.0
21/12:00am 14.6 8.6 10.8 78 2.0 N 33 52 18 28 1002.0 1002.1 0.0
 
Date/Time
EST
Temp
°C
App
Temp
°C
Dew
Point
°C
Rel
Hum
%
Delta-T
°C
Wind Press
QNH
hPa
Press
MSL
hPa
Rain since
9am
mm
Dir  Spd
km/h
Gust
km/h
Spd
kts
Gust
kts
20/11:30pm 14.0 9.0 10.8 81 1.7 N 28 39 15 21 1002.2 1002.3 0.0
20/11:00pm 14.6 8.6 10.0 74 2.4 N 32 48 17 26 1002.0 1002.1 0.0
20/10:47pm 14.3 8.7 10.3 77 2.1 N 30 54 16 29 1002.2 1002.3 0.0
20/10:30pm 15.1 7.0 9.9 71 2.7 NNW 43 57 23 31 1001.9 1002.0 0.0
20/10:00pm 15.0 7.2 9.8 71 2.7 NNW 41 61 22 33 1001.4 1001.5 0.0
20/09:59pm 15.0 7.2 9.6 70 2.8 NNW 41 61 22 33 1001.4 1001.5 0.0
20/09:30pm 14.3 7.8 10.5 78 2.0 N 35 44 19 24 1001.6 1001.7 0.0
20/09:00pm 14.5 8.7 10.7 78 2.0 N 32 43 17 23 1001.8 1001.9 0.0
20/08:30pm 13.2 8.3 11.3 88 1.0 N 28 46 15 25 1002.1 1002.2 0.0
20/08:27pm 13.9 9.0 11.4 85 1.3 N 28 46 15 25 1002.1 1002.2 0.0
20/08:00pm 13.6 8.6 12.3 92 0.7 N 30 39 16 21 1002.2 1002.3 0.0
20/07:30pm 13.4 8.3 13.1 98 0.2 N 32 41 17 22 1002.1 1002.2 0.0
20/07:00pm 14.6 10.3 14.3 98 0.2 N 30 43 16 23 1001.9 1002.0 0.0
20/06:30pm 13.2 8.1 13.2 100 0.0 N 32 37 17 20 1001.6 1001.7 0.0
20/06:00pm 13.6 8.7 13.6 100 0.0 N 32 39 17 21 1001.7 1001.8 0.0
20/05:30pm 13.3 8.1 13.3 100 0.0 N 33 41 18 22 1001.8 1001.9 0.0
20/05:00pm 12.8 8.0 12.8 100 0.0 N 30 39 16 21 1002.0 1002.1 0.0
20/04:30pm 12.9 8.1 12.9 100 0.0 N 30 41 16 22 1002.3 1002.5 0.0
20/04:00pm 12.7 7.5 12.7 100 0.0 NNE 32 43 17 23 1002.4 1002.6 0.0
20/03:30pm 13.1 8.0 13.1 100 0.0 N 32 43 17 23 1002.7 1002.9 0.0
20/03:00pm 13.4 8.2 13.4 100 0.0 N 33 43 18 23 1003.1 1003.3 0.0
20/02:30pm 13.6 8.7 13.6 100 0.0 N 32 43 17 23 1003.4 1003.6 0.0
20/02:00pm 14.5 9.3 14.5 100 0.0 N 35 41 19 22 1003.8 1004.0 0.0
20/01:30pm 14.2 9.5 14.2 100 0.0 N 32 39 17 21 1004.1 1004.3 0.0
20/01:00pm 13.3 8.3 13.3 100 0.0 N 32 41 17 22 1004.4 1004.6 0.0
20/12:30pm 13.0 6.9 13.0 100 0.0 N 37 50 20 27 1004.9 1005.1 0.0
20/12:00pm 12.7 4.8 12.7 100 0.0 N 46 57 25 31 1005.2 1005.4 0.0
20/11:34am 12.7 5.2 12.7 100 0.0 N 44 63 24 34 1005.4 1005.6 0.0
20/11:30am 12.8 5.5 12.8 100 0.0 N 43 59 23 32 1005.4 1005.6 0.0
20/11:00am 12.7 3.7 12.7 100 0.0 N 52 63 28 34 1006.1 1006.3 0.0
20/10:38am 12.8 5.9 12.8 100 0.0 NNE 41 61 22 33 1006.4 1006.6 0.0
20/10:30am 12.9 4.7 12.9 100 0.0 N 48 63 26 34 1006.6 1006.8 0.0
20/10:00am 12.6 3.9 12.6 100 0.0 N 50 63 27 34 1007.3 1007.5 0.0
20/09:30am 12.7 4.8 12.7 100 0.0 N 46 65 25 35 1007.7 1007.9 0.0
20/09:00am 12.8 4.2 12.8 100 0.0 NNE 50 61 27 33 1008.1 1008.3 0.4
20/08:30am 13.0 5.8 13.0 100 0.0 N 43 56 23 30 1008.6 1008.8 0.4
20/08:00am 12.8 4.6 12.8 100 0.0 N 48 65 26 35 1009.1 1009.3 0.4
20/07:30am 12.5 4.5 12.5 100 0.0 N 46 59 25 32 1009.0 1009.2 0.4
20/07:00am 12.0 3.9 12.0 100 0.0 NNE 46 57 25 31 1009.3 1009.6 0.4
20/06:30am 12.3 4.7 12.3 100 0.0 N 44 65 24 35 1009.4 1009.7 0.2
20/06:25am 12.0 5.2 12.0 100 0.0 NNE 39 57 21 31 1009.4 1009.7 0.2
20/06:00am 11.2 3.4 11.2 100 0.0 NNE 43 54 23 29 1009.8 1010.1 0.2
20/05:44am 11.8 3.6 11.8 100 0.0 N 46 65 25 35 1009.9 1010.2 0.2
20/05:30am 11.6 2.6 11.6 100 0.0 N 50 61 27 33 1010.3 1010.5 0.2
20/05:00am 11.3 2.2 11.3 100 0.0 N 50 65 27 35 1010.4 1010.6 0.2
20/04:30am 11.2 2.5 11.2 100 0.0 N 48 61 26 33 1010.8 1011.0 0.2
20/04:00am 11.2 2.1 11.2 100 0.0 N 50 72 27 39 1011.1 1011.3 0.2
20/03:56am 11.3 2.2 11.3 100 0.0 N 50 72 27 39 1011.1 1011.3 0.2
20/03:30am 11.5 2.9 11.5 100 0.0 N 48 65 26 35 1011.5 1011.7 0.2
20/03:06am 11.5 3.6 11.5 100 0.0 N 44 63 24 34 1011.7 1011.9 0.2
20/03:00am 11.5 2.9 11.5 100 0.0 N 48 65 26 35 1011.8 1012.0 0.2
20/02:36am 11.3 3.4 11.3 100 0.0 N 44 63 24 34 1012.4 1012.6 0.0
20/02:30am 11.3 3.0 11.3 100 0.0 N 46 61 25 33 1012.5 1012.7 0.0
20/02:11am 11.5 3.8 11.5 100 0.0 N 43 65 23 35 1012.7 1013.0 0.0
20/02:00am 11.5 3.6 11.5 100 0.0 N 44 63 24 34 1013.0 1013.3 0.0
20/01:50am 11.5 3.6 11.5 100 0.0 N 44 65 24 35 1013.3 1013.6 0.0
20/01:30am 11.5 3.2 11.5 100 0.0 N 46 65 25 35 1013.7 1014.0 0.0
20/01:00am 11.5 1.7 11.5 100 0.0 N 54 74 29 40 1013.9 1014.2 0.0
20/12:55am 11.6 1.8 11.6 100 0.0 N 54 74 29 40 1014.2 1014.5 0.0
20/12:30am 11.6 1.3 11.6 100 0.0 N 57 72 31 39 1014.2 1014.5 0.0
20/12:00am 11.4 1.0 11.4 100 0.0 N 57 74 31 40 1014.7 1014.9 0.0
 
Date/Time
EST
Temp
°C
App
Temp
°C
Dew
Point
°C
Rel
Hum
%
Delta-T
°C
Wind Press
QNH
hPa
Press
MSL
hPa
Rain since
9am
mm
Dir  Spd
km/h
Gust
km/h
Spd
kts
Gust
kts
19/11:42pm 11.5 1.3 11.5 100 0.0 N 56 74 30 40 1014.9 1015.1 0.0
19/11:30pm 11.5 1.1 11.5 100 0.0 N 57 72 31 39 1015.0 1015.2 0.0
19/11:00pm 11.4 1.0 11.4 100 0.0 N 57 76 31 41 1015.2 1015.4 0.0
19/10:38pm 11.3 0.9 11.3 100 0.0 N 57 76 31 41 1015.5 1015.7 0.0
19/10:30pm 11.3 1.1 11.3 100 0.0 N 56 72 30 39 1015.5 1015.7 0.0
19/10:00pm 11.0 0.7 11.0 100 0.0 N 56 72 30 39 1016.0 1016.2 0.0
19/09:30pm 11.1 0.6 11.1 100 0.0 N 57 72 31 39 1016.4 1016.7 0.0
19/09:00pm 10.9 0.4 10.9 100 0.0 N 57 74 31 40 1016.8 1017.1 0.0
19/08:51pm 11.0 0.7 11.0 100 0.0 N 56 74 30 40 1016.8 1017.1 0.0
19/08:30pm 10.9 0.6 10.9 100 0.0 N 56 70 30 38 1016.9 1017.2 0.0
19/08:00pm 10.9 0.6 10.9 100 0.0 N 56 69 30 37 1017.3 1017.6 0.0
19/07:50pm 10.9 0.4 10.9 100 0.0 N 57 76 31 41 1017.3 1017.6 0.0
19/07:30pm 10.9 0.0 10.9 100 0.0 N 59 74 32 40 1017.4 1017.7 0.0
19/07:13pm 10.8 0.2 10.8 100 0.0 N 57 76 31 41 1017.4 1017.7 0.0
19/07:00pm 10.8 -0.1 10.8 100 0.0 N 59 74 32 40 1017.4 1017.7 0.0
19/06:30pm 10.8 0.4 10.8 100 0.0 N 56 72 30 39 1017.5 1017.8 0.0
19/06:00pm 10.9 0.3 10.7 99 0.1 N 57 78 31 42 1017.9 1018.2 0.0
19/05:33pm 10.9 1.2 10.6 98 0.2 N 52 70 28 38 1018.1 1018.4 0.0
19/05:30pm 11.0 0.6 10.7 98 0.2 N 56 70 30 38 1018.2 1018.5 0.0
19/05:00pm 11.1 0.7 10.6 97 0.3 N 56 69 30 37 1018.7 1019.0 0.0
19/04:30pm 11.0 0.0 10.4 96 0.3 N 59 76 32 41 1018.7 1019.0 0.0
19/04:00pm 11.8 1.7 10.4 91 0.7 N 54 70 29 38 1019.0 1019.2 0.0
19/03:52pm 11.6 2.2 10.2 91 0.7 N 50 70 27 38 1019.3 1019.5 0.0
19/03:30pm 11.7 3.7 10.3 91 0.7 N 43 59 23 32 1019.7 1020.0 0.0
19/03:00pm 11.3 3.7 10.5 95 0.4 NNE 41 56 22 30 1020.5 1020.8 0.0
19/02:30pm 11.9 3.9 10.6 92 0.7 NNE 43 59 23 32 1020.5 1020.8 0.0
19/02:06pm 12.1 4.2 10.7 91 0.7 NNE 43 61 23 33 1020.7 1021.0 0.0
19/02:00pm 12.2 3.7 10.8 91 0.7 NNE 46 65 25 35 1020.6 1020.9 0.0
19/01:30pm 11.9 2.6 10.5 91 0.7 NNE 50 65 27 35 1021.1 1021.4 0.0
19/01:16pm 11.6 3.4 10.3 92 0.7 NNE 44 65 24 35 1021.6 1021.9 0.0
19/01:00pm 11.7 3.6 10.6 93 0.6 NNE 44 61 24 33 1022.1 1022.4 0.0

Other formats

Comma delimited format used in spreadsheet applications
http://www.bom.gov.au/fwo/IDT60801/IDT60801.95986.axf

JavaScript Object Notation format (JSON) in row-major order
http://www.bom.gov.au/fwo/IDT60801/IDT60801.95986.json

Data quality

Most of these data are generated automatically and are frequently updated. Quality checks on data are not normally performed. It is possible for incorrect values to appear. Refer to information at About Latest Weather Observations and please check the disclaimer before using these data.